Time;durP1;ratioP1;P1;durP2;ratioP2;P2;SDS_P1;SDS_P2;PMS_P1;PMS_P2;Temp;Humidity;BMP_temperature;BMP_pressure;BME280_temperature;BME280_humidity;BME280_pressure;Samples;Min_cycle;Max_cycle;Signal;HPM_P1;HPM_P2
2020/12/27 00:01:39;;;;;;;3.33;3.03;;;;;;;2.52;77.66;99677.13;5050707;28;20969;-75
2020/12/27 00:04:04;;;;;;;4.00;3.70;;;;;;;2.51;77.62;99666.63;5050620;28;20238;-76
2020/12/27 00:06:31;;;;;;;3.73;3.40;;;;;;;2.49;78.21;99658.00;5050257;28;20171;-77
2020/12/27 00:08:57;;;;;;;3.57;3.23;;;;;;;2.52;78.34;99652.06;5050465;28;20171;-77
2020/12/27 00:11:22;;;;;;;2.10;1.90;;;;;;;2.47;78.31;99642.13;5050862;28;20417;-75
2020/12/27 00:13:47;;;;;;;3.00;2.80;;;;;;;2.53;78.08;99640.19;5050628;28;20207;-76
2020/12/27 00:16:13;;;;;;;3.97;3.67;;;;;;;2.47;78.26;99634.03;5050277;28;20591;-76
2020/12/27 00:18:38;;;;;;;4.97;3.97;;;;;;;2.46;78.45;99620.81;5049115;28;20221;-76
2020/12/27 00:21:11;;;;;;;3.27;2.97;;;;;;;2.45;78.27;99597.63;5050337;28;20229;-76
2020/12/27 00:23:36;;;;;;;3.97;3.63;;;;;;;2.42;78.55;99600.88;5052392;28;20576;-77
2020/12/27 00:26:01;;;;;;;4.77;3.70;;;;;;;2.43;78.22;99597.09;5054192;28;20517;-75
2020/12/27 00:28:27;;;;;;;4.07;3.77;;;;;;;2.41;78.22;99588.50;5054348;28;20548;-76
2020/12/27 00:30:52;;;;;;;3.60;3.07;;;;;;;2.44;77.83;99582.53;5054155;28;20187;-77
2020/12/27 00:33:17;;;;;;;3.73;1.73;;;;;;;2.38;78.22;99571.81;5054194;28;20183;-77
2020/12/27 00:35:43;;;;;;;4.37;3.97;;;;;;;2.30;78.89;99564.28;5054209;28;20171;-76
2020/12/27 00:38:08;;;;;;;3.47;3.17;;;;;;;2.34;78.29;99565.38;5054058;28;20202;-77
2020/12/27 00:40:34;;;;;;;4.53;4.13;;;;;;;2.29;79.06;99551.09;5052839;28;20183;-77
2020/12/27 00:42:59;;;;;;;4.13;3.83;;;;;;;2.25;79.19;99541.97;5053959;28;20659;-77
2020/12/27 00:45:24;;;;;;;1.90;1.80;;;;;;;2.29;78.43;99554.59;5054326;28;20179;-76
2020/12/27 00:47:49;;;;;;;4.33;4.03;;;;;;;2.22;78.91;99529.84;5053782;28;20282;-75
2020/12/27 00:50:15;;;;;;;5.13;4.63;;;;;;;2.21;79.02;99527.44;5053991;28;20175;-77
2020/12/27 00:52:40;;;;;;;0.80;0.80;;;;;;;2.22;78.92;99524.47;5053955;28;20242;-77
2020/12/27 00:55:05;;;;;;;5.43;3.50;;;;;;;2.24;78.87;99534.97;5053922;28;20187;-77
2020/12/27 00:57:31;;;;;;;4.10;3.80;;;;;;;2.22;78.56;99532.56;5053891;28;20198;-76
2020/12/27 00:59:56;;;;;;;4.87;4.47;;;;;;;2.18;78.73;99518.03;5053823;28;20493;-75
2020/12/27 01:02:21;;;;;;;4.53;2.50;;;;;;;2.23;78.68;99522.59;5053824;28;20179;-76
2020/12/27 01:04:47;;;;;;;3.83;3.53;;;;;;;2.19;78.87;99508.88;5053724;28;20244;-77
2020/12/27 01:07:12;;;;;;;4.00;3.70;;;;;;;2.18;78.72;99499.19;5053565;28;20183;-76
2020/12/27 01:09:37;;;;;;;4.13;3.73;;;;;;;2.14;78.90;99484.63;5053660;28;20540;-76
2020/12/27 01:12:03;;;;;;;3.80;3.53;;;;;;;2.14;78.84;99473.06;5053537;28;20207;-75
2020/12/27 01:14:28;;;;;;;4.17;3.83;;;;;;;2.11;79.22;99466.34;5053481;28;20216;-74
2020/12/27 01:16:53;;;;;;;0.97;0.93;;;;;;;2.13;79.07;99447.19;5053439;28;20240;-76
2020/12/27 01:19:19;;;;;;;2.63;2.37;;;;;;;2.13;78.80;99444.50;5053428;28;20183;-76
2020/12/27 01:21:44;;;;;;;4.20;3.80;;;;;;;2.07;79.09;99436.47;5053466;28;20183;-74
2020/12/27 01:24:10;;;;;;;3.40;3.13;;;;;;;2.05;79.07;99432.44;5053389;28;20207;-76
2020/12/27 01:26:35;;;;;;;4.40;4.03;;;;;;;2.08;78.70;99404.94;5053694;28;20179;-76
2020/12/27 01:29:02;;;;;;;2.60;2.07;;;;;;;2.08;79.20;99404.94;5053205;28;20187;-75
2020/12/27 01:31:27;;;;;;;1.83;1.73;;;;;;;2.06;78.74;99407.13;5053208;28;20175;-75
2020/12/27 01:33:54;;;;;;;2.03;1.93;;;;;;;2.05;79.06;99387.47;5052796;28;20425;-76
2020/12/27 01:36:33;;;;;;;5.40;1.70;;;;;;;2.05;78.74;99386.66;5053163;28;20284;-76
2020/12/27 01:39:00;;;;;;;2.53;2.33;;;;;;;2.02;79.29;99387.19;5053036;28;20833;-77
2020/12/27 01:41:25;;;;;;;2.63;2.43;;;;;;;2.00;79.09;99382.09;5053023;28;20418;-75
2020/12/27 01:44:04;;;;;;;2.87;2.70;;;;;;;2.01;79.17;99382.88;5052922;28;20487;-77
2020/12/27 01:46:34;;;;;;;3.10;2.07;;;;;;;2.02;79.02;99395.28;5052826;28;20171;-75
2020/12/27 01:49:00;;;;;;;4.27;3.87;;;;;;;2.02;79.20;99379.91;5051617;28;20446;-75
2020/12/27 01:51:25;;;;;;;2.43;2.20;;;;;;;2.04;78.68;99363.50;5052578;28;20432;-77
2020/12/27 01:53:50;;;;;;;4.70;3.20;;;;;;;2.06;78.71;99366.72;5051420;28;20179;-77
2020/12/27 01:56:18;;;;;;;3.40;3.10;;;;;;;2.05;78.44;99365.91;5052942;28;20207;-76
2020/12/27 01:58:46;;;;;;;4.80;2.57;;;;;;;2.06;78.44;99350.53;5052639;28;20179;-73
2020/12/27 02:01:12;;;;;;;3.87;2.87;;;;;;;2.06;78.61;99353.25;5052759;28;20743;-77
2020/12/27 02:03:40;;;;;;;4.47;4.07;;;;;;;2.00;78.58;99346.28;5053182;28;21151;-75
2020/12/27 02:06:05;;;;;;;2.37;2.17;;;;;;;2.03;78.25;99351.91;5052311;28;20463;-76
2020/12/27 02:08:31;;;;;;;2.73;2.57;;;;;;;2.01;78.43;99340.59;5052468;28;20429;-76
2020/12/27 02:10:56;;;;;;;3.17;2.43;;;;;;;2.01;78.31;99326.31;5052629;28;20230;-75
2020/12/27 02:13:22;;;;;;;2.07;1.97;;;;;;;1.99;78.33;99323.91;5052437;28;20178;-77
2020/12/27 02:15:47;;;;;;;3.10;2.90;;;;;;;2.00;77.91;99330.91;5052374;28;20258;-77
2020/12/27 02:18:12;;;;;;;3.57;3.33;;;;;;;2.02;78.16;99336.00;5052181;28;20179;-76
2020/12/27 02:20:38;;;;;;;3.00;2.80;;;;;;;1.97;78.20;99318.00;5051144;28;20214;-76
2020/12/27 02:23:05;;;;;;;2.03;1.93;;;;;;;1.98;78.00;99316.13;5051075;28;20268;-76
2020/12/27 02:25:30;;;;;;;3.67;3.37;;;;;;;1.97;78.42;99312.63;5052510;28;20518;-77
2020/12/27 02:27:55;;;;;;;2.67;2.47;;;;;;;2.01;77.87;99318.25;5052031;28;20424;-77
2020/12/27 02:30:21;;;;;;;4.60;4.20;;;;;;;2.03;77.87;99313.41;5050836;28;20796;-76
2020/12/27 02:32:46;;;;;;;4.87;4.37;;;;;;;1.97;77.90;99306.44;5052135;28;20183;-75
2020/12/27 02:35:12;;;;;;;2.57;2.37;;;;;;;2.02;77.61;99303.69;5052035;28;20210;-77
2020/12/27 02:37:37;;;;;;;3.30;3.00;;;;;;;2.01;77.64;99307.47;5051942;28;20256;-76
2020/12/27 02:40:03;;;;;;;3.33;2.67;;;;;;;2.00;77.62;99301.28;5051809;28;20214;-77
2020/12/27 02:42:29;;;;;;;3.07;2.80;;;;;;;2.03;77.75;99289.16;5052148;28;20520;-77
2020/12/27 02:47:29;;;;;;;3.93;3.63;;;;;;;2.06;77.65;99277.81;5051385;28;20268;-77
2020/12/27 02:49:55;;;;;;;1.23;1.17;;;;;;;2.05;77.21;99258.16;5051633;28;20752;-77
2020/12/27 02:52:20;;;;;;;2.70;2.50;;;;;;;2.03;77.59;99248.75;5051754;28;20425;-77
2020/12/27 02:54:46;;;;;;;4.03;2.73;;;;;;;2.04;77.01;99236.91;5050341;28;20258;-75
2020/12/27 02:57:12;;;;;;;3.77;2.57;;;;;;;2.05;77.18;99238.50;5051697;28;20190;-75
2020/12/27 02:59:37;;;;;;;2.50;2.23;;;;;;;2.02;77.09;99230.97;5050698;28;20207;-76
2020/12/27 03:02:03;;;;;;;1.70;1.60;;;;;;;2.05;77.33;99222.34;5051368;28;20182;-77
2020/12/27 03:04:28;;;;;;;1.47;1.37;;;;;;;2.01;76.91;99221.28;5051314;28;20203;-77
2020/12/27 03:06:53;;;;;;;2.73;2.20;;;;;;;1.99;77.04;99207.31;5049876;28;20510;-76
2020/12/27 03:09:19;;;;;;;3.63;3.33;;;;;;;2.00;77.05;99198.13;5051382;28;20171;-75
2020/12/27 03:11:44;;;;;;;3.40;3.20;;;;;;;1.97;77.03;99180.66;5051217;28;20199;-77
2020/12/27 03:14:11;;;;;;;3.30;3.10;;;;;;;1.93;77.04;99176.94;5051120;28;20210;-76
2020/12/27 03:16:36;;;;;;;1.90;1.80;;;;;;;1.92;77.00;99166.47;5051114;28;20517;-78
2020/12/27 03:19:02;;;;;;;3.50;2.73;;;;;;;1.88;77.21;99160.00;5051011;28;20997;-76
2020/12/27 03:21:27;;;;;;;3.97;3.67;;;;;;;1.85;77.77;99147.94;5050958;28;20171;-75
2020/12/27 03:23:52;;;;;;;1.87;1.73;;;;;;;1.93;76.65;99151.91;5050932;28;20237;-77
2020/12/27 03:26:17;;;;;;;1.33;1.23;;;;;;;1.92;76.98;99143.03;5050815;28;20375;-76
2020/12/27 03:28:43;;;;;;;2.67;2.00;;;;;;;1.92;76.36;99126.06;5050998;28;20175;-74
2020/12/27 03:31:08;;;;;;;2.37;2.27;;;;;;;1.90;76.39;99125.53;5050887;28;20186;-77
2020/12/27 03:33:34;;;;;;;3.43;3.13;;;;;;;1.89;76.57;99113.97;5051330;28;20254;-76
2020/12/27 03:35:59;;;;;;;3.13;2.70;;;;;;;1.93;76.85;99100.72;5050819;28;20167;-73
2020/12/27 03:38:24;;;;;;;2.73;2.23;;;;;;;1.94;76.66;99099.63;5050633;28;20309;-75
2020/12/27 03:40:50;;;;;;;3.43;3.00;;;;;;;1.92;76.72;99082.97;5050887;28;20186;-75
2020/12/27 03:43:15;;;;;;;3.10;2.87;;;;;;;1.96;76.29;99065.94;5050832;28;20195;-76
2020/12/27 03:45:41;;;;;;;3.37;2.40;;;;;;;1.94;76.54;99070.81;5050766;28;20182;-76
2020/12/27 03:48:07;;;;;;;2.90;2.70;;;;;;;1.98;76.62;99065.66;5049226;28;20580;-74
2020/12/27 03:50:33;;;;;;;3.30;3.07;;;;;;;1.88;76.47;99066.59;5049913;28;20582;-77
2020/12/27 03:52:58;;;;;;;1.20;1.20;;;;;;;1.98;76.13;99081.81;5050182;28;20421;-76
2020/12/27 03:55:24;;;;;;;2.47;2.27;;;;;;;1.96;76.56;99073.22;5050582;28;20167;-77
2020/12/27 03:57:49;;;;;;;2.87;2.20;;;;;;;1.98;76.10;99047.59;5050231;28;20229;-75
2020/12/27 04:00:15;;;;;;;3.30;3.03;;;;;;;1.88;76.91;99042.34;5049960;28;20443;-76
2020/12/27 04:02:40;;;;;;;3.00;2.80;;;;;;;1.90;76.82;99037.50;5050555;28;20209;-77
2020/12/27 04:05:06;;;;;;;2.40;1.50;;;;;;;1.94;76.39;99037.69;5050443;28;20179;-75
2020/12/27 04:07:32;;;;;;;2.60;2.00;;;;;;;1.93;76.50;99025.31;5050607;28;20171;-77
2020/12/27 04:09:58;;;;;;;3.03;2.83;;;;;;;1.87;76.40;99024.56;5050586;28;20174;-76
2020/12/27 04:12:24;;;;;;;3.03;2.77;;;;;;;1.91;76.04;99006.78;5050415;28;20501;-76
2020/12/27 04:14:50;;;;;;;3.13;1.73;;;;;;;1.99;75.77;98997.22;5049159;28;20517;-74
2020/12/27 04:17:15;;;;;;;2.30;2.07;;;;;;;1.93;75.94;98990.31;5050309;28;20175;-77
2020/12/27 04:19:40;;;;;;;1.73;1.63;;;;;;;1.93;76.16;98979.56;5050359;28;20201;-76
2020/12/27 04:22:06;;;;;;;1.07;1.03;;;;;;;1.95;76.13;98955.81;5050513;28;20171;-74
2020/12/27 04:24:31;;;;;;;4.07;2.33;;;;;;;1.89;75.96;98946.22;5050364;28;20253;-76
2020/12/27 04:26:56;;;;;;;2.43;2.23;;;;;;;1.88;76.15;98923.06;5050643;28;20651;-76
2020/12/27 04:29:22;;;;;;;2.17;1.97;;;;;;;1.89;76.08;98922.00;5050642;28;20692;-74
2020/12/27 04:31:51;;;;;;;2.53;2.33;;;;;;;1.86;75.59;98892.94;5050799;28;20199;-77
2020/12/27 04:34:16;;;;;;;3.07;1.00;;;;;;;1.86;76.17;98892.94;5054206;28;20175;-75
2020/12/27 04:36:42;;;;;;;5.43;1.70;;;;;;;1.82;75.52;98884.63;5055740;28;20409;-77
2020/12/27 04:39:07;;;;;;;2.90;2.70;;;;;;;1.81;75.19;98874.97;5051264;28;20639;-77
2020/12/27 04:41:33;;;;;;;2.20;2.00;;;;;;;1.81;75.43;98858.81;5050785;28;20589;-76
2020/12/27 04:43:59;;;;;;;1.27;1.17;;;;;;;1.85;74.94;98848.25;5050675;28;20191;-75
2020/12/27 04:46:25;;;;;;;1.87;1.37;;;;;;;1.82;74.90;98830.00;5050763;28;20417;-76
2020/12/27 04:48:53;;;;;;;2.53;1.90;;;;;;;1.85;74.61;98840.16;5050273;28;20438;-77
2020/12/27 04:51:19;;;;;;;2.07;1.97;;;;;;;1.86;74.52;98852.53;5050274;28;20167;-74
2020/12/27 04:53:45;;;;;;;2.80;2.10;;;;;;;1.77;74.63;98831.69;5049931;28;20444;-74
2020/12/27 04:56:13;;;;;;;2.30;2.10;;;;;;;1.81;74.78;98834.59;5049769;28;20893;-75
2020/12/27 04:58:38;;;;;;;2.60;1.70;;;;;;;1.75;74.80;98814.22;5049294;28;20202;-77
2020/12/27 05:01:07;;;;;;;2.87;2.10;;;;;;;1.78;74.49;98819.03;5049686;28;20429;-76
2020/12/27 05:03:33;;;;;;;1.90;1.30;;;;;;;1.83;74.10;98797.38;5049734;28;20207;-75
2020/12/27 05:05:58;;;;;;;1.87;1.60;;;;;;;1.85;74.15;98794.41;5050000;28;20771;-77
2020/12/27 05:08:23;;;;;;;1.63;1.40;;;;;;;1.84;73.77;98795.50;5049706;28;20183;-77
2020/12/27 05:10:49;;;;;;;1.63;1.53;;;;;;;1.82;73.93;98784.22;5053816;28;20549;-74
2020/12/27 05:13:16;;;;;;;2.97;1.80;;;;;;;1.89;73.71;98766.63;5053391;28;20206;-77
2020/12/27 05:15:43;;;;;;;1.10;1.00;;;;;;;1.86;73.84;98774.47;5053256;28;20656;-76
2020/12/27 05:18:09;;;;;;;1.33;1.03;;;;;;;1.88;73.46;98750.72;5053406;28;20509;-77
2020/12/27 05:20:36;;;;;;;1.50;1.20;;;;;;;1.86;73.68;98761.00;5053456;28;20410;-76
2020/12/27 05:23:04;;;;;;;1.50;1.40;;;;;;;1.87;73.80;98724.91;5052002;28;20518;-75
2020/12/27 05:25:30;;;;;;;1.50;1.27;;;;;;;1.87;73.63;98722.19;5053111;28;20943;-76
2020/12/27 05:28:09;;;;;;;1.47;1.20;;;;;;;1.94;73.17;98728.03;5053407;28;20425;-77
2020/12/27 05:30:42;;;;;;;0.57;0.57;;;;;;;1.91;73.63;98737.50;5053124;28;20953;-77
2020/12/27 05:33:15;;;;;;;1.77;1.27;;;;;;;1.93;73.75;98758.72;5052950;28;20483;-75
2020/12/27 05:35:41;;;;;;;1.57;1.23;;;;;;;1.96;73.75;98768.91;5052872;28;20766;-76
2020/12/27 05:38:08;;;;;;;1.30;1.20;;;;;;;1.98;73.61;98780.97;5052755;28;20409;-75
2020/12/27 05:40:39;;;;;;;1.63;1.50;;;;;;;2.00;73.37;98761.81;5052919;28;20414;-74
2020/12/27 05:43:14;;;;;;;1.20;1.10;;;;;;;2.03;73.33;98755.88;5052858;28;20946;-76
2020/12/27 05:45:40;;;;;;;1.90;1.80;;;;;;;1.98;73.79;98764.03;5052720;28;20406;-76
2020/12/27 05:48:07;;;;;;;1.80;1.70;;;;;;;2.02;73.74;98748.84;5051215;28;20421;-76
2020/12/27 05:50:37;;;;;;;1.97;1.00;;;;;;;2.11;73.22;98743.59;5052702;28;20179;-77
2020/12/27 05:53:23;;;;;;;1.73;1.63;;;;;;;2.04;73.94;98731.34;5052683;28;20513;-75
2020/12/27 05:55:50;;;;;;;1.17;1.13;;;;;;;2.09;73.55;98720.44;5051281;28;20418;-74
2020/12/27 05:58:24;;;;;;;1.10;0.63;;;;;;;2.06;73.72;98710.28;5052569;28;20874;-77
2020/12/27 06:00:54;;;;;;;1.53;1.40;;;;;;;2.11;73.80;98705.88;5052670;28;20500;-77
2020/12/27 06:03:21;;;;;;;1.87;1.77;;;;;;;2.08;73.78;98693.81;5051129;28;20453;-74
2020/12/27 06:05:56;;;;;;;1.67;1.57;;;;;;;2.08;73.80;98688.44;5052484;28;20410;-77
2020/12/27 06:08:27;;;;;;;3.70;2.20;;;;;;;2.13;73.66;98691.03;5052482;28;20506;-77
2020/12/27 06:11:05;;;;;;;2.80;1.87;;;;;;;2.17;73.82;98685.81;5051176;28;20417;-77
2020/12/27 06:13:58;;;;;;;2.13;1.70;;;;;;;2.22;73.48;98686.53;5052424;28;20468;-75
2020/12/27 06:16:57;;;;;;;1.93;1.60;;;;;;;2.19;73.45;98683.66;5052150;28;20414;-75
2020/12/27 06:19:23;;;;;;;2.10;1.87;;;;;;;2.19;73.50;98656.72;5044686;28;20917;-77
2020/12/27 06:22:03;;;;;;;1.60;1.23;;;;;;;2.24;73.45;98643.13;5052283;28;20428;-75
2020/12/27 06:24:30;;;;;;;1.20;1.10;;;;;;;2.24;73.30;98633.16;5051990;28;20197;-75
2020/12/27 06:26:57;;;;;;;2.43;1.60;;;;;;;2.17;74.01;98616.63;5051940;28;20763;-75
2020/12/27 06:29:23;;;;;;;1.53;1.40;;;;;;;2.20;73.61;98609.81;5051961;28;20413;-73
2020/12/27 06:31:50;;;;;;;1.10;1.00;;;;;;;2.23;73.83;98606.53;5052044;28;20841;-76
2020/12/27 06:34:17;;;;;;;1.70;1.60;;;;;;;2.17;73.49;98608.53;5051820;28;20531;-78
2020/12/27 06:36:42;;;;;;;1.00;0.80;;;;;;;2.26;73.63;98592.44;5050359;28;20426;-77
2020/12/27 06:39:28;;;;;;;1.97;1.27;;;;;;;2.21;73.75;98587.16;5051904;28;20413;-76
2020/12/27 06:42:13;;;;;;;1.53;1.43;;;;;;;2.22;73.45;98584.16;5051840;28;20178;-74
2020/12/27 06:44:43;;;;;;;1.60;1.43;;;;;;;2.20;73.75;98577.50;5051634;28;20488;-75
2020/12/27 06:47:10;;;;;;;2.30;2.07;;;;;;;2.20;74.20;98558.63;5051387;28;20414;-75
2020/12/27 06:49:36;;;;;;;4.10;1.53;;;;;;;2.23;73.60;98564.22;5051521;28;20406;-77
2020/12/27 06:52:21;;;;;;;1.33;1.23;;;;;;;2.21;73.61;98554.84;5051611;28;20447;-77
2020/12/27 06:54:48;;;;;;;1.10;0.50;;;;;;;2.19;73.95;98555.16;5051431;28;20167;-75
2020/12/27 06:57:43;;;;;;;1.60;1.50;;;;;;;2.21;74.06;98544.06;5051264;28;20496;-77
2020/12/27 07:00:28;;;;;;;0.70;0.70;;;;;;;2.21;74.22;98538.69;5051366;28;20410;-76
2020/12/27 07:03:17;;;;;;;1.70;1.50;;;;;;;2.19;74.35;98555.16;5051162;28;20449;-76
2020/12/27 07:05:43;;;;;;;0.90;0.73;;;;;;;2.25;73.98;98537.75;5051186;28;20829;-77
2020/12/27 07:08:10;;;;;;;1.93;1.43;;;;;;;2.27;73.89;98526.69;5051035;28;20501;-74
2020/12/27 07:10:39;;;;;;;0.93;0.93;;;;;;;2.32;73.50;98524.69;5051105;28;20673;-76
2020/12/27 07:13:13;;;;;;;1.27;1.17;;;;;;;2.29;74.18;98516.38;5051191;28;20770;-77
2020/12/27 07:15:52;;;;;;;1.00;1.00;;;;;;;2.28;73.94;98514.81;5051038;28;20422;-76
2020/12/27 07:18:24;;;;;;;1.40;1.27;;;;;;;2.23;74.23;98483.41;5050990;28;20852;-76
2020/12/27 07:20:53;;;;;;;1.13;1.10;;;;;;;2.22;74.35;98489.88;5050929;28;20413;-75
2020/12/27 07:23:24;;;;;;;1.47;1.33;;;;;;;2.22;74.24;98476.41;5051028;28;20469;-77
2020/12/27 07:25:53;;;;;;;1.33;1.23;;;;;;;2.25;74.03;98467.72;5050921;28;20424;-77
2020/12/27 07:28:20;;;;;;;1.10;1.00;;;;;;;2.30;73.90;98459.50;5050701;28;20778;-79
2020/12/27 07:30:47;;;;;;;0.93;0.90;;;;;;;2.25;74.03;98456.16;5050845;28;20406;-78
2020/12/27 07:33:14;;;;;;;1.37;1.27;;;;;;;2.33;73.75;98442.75;5049638;28;20494;-77
2020/12/27 07:35:40;;;;;;;1.67;1.57;;;;;;;2.32;74.02;98438.47;5050729;28;20167;-76
2020/12/27 07:38:07;;;;;;;0.60;0.57;;;;;;;2.39;73.45;98438.81;5049478;28;20780;-77
2020/12/27 07:40:37;;;;;;;0.33;0.33;;;;;;;2.33;73.93;98433.88;5050756;28;20289;-77
2020/12/27 07:43:11;;;;;;;1.40;1.17;;;;;;;2.33;73.77;98431.97;5050531;28;20457;-76
2020/12/27 07:45:37;;;;;;;1.90;1.37;;;;;;;2.36;73.92;98431.34;5050515;28;20912;-78
2020/12/27 07:48:02;;;;;;;1.10;1.00;;;;;;;2.37;73.60;98430.25;5050502;28;20449;-77
2020/12/27 07:50:28;;;;;;;1.17;1.07;;;;;;;2.39;73.55;98400.28;5050692;28;20558;-77
2020/12/27 07:52:58;;;;;;;0.70;0.70;;;;;;;2.38;73.51;98418.38;5047780;28;20178;-78
2020/12/27 07:55:29;;;;;;;2.53;1.20;;;;;;;2.37;73.63;98410.59;5050528;28;20294;-79
2020/12/27 07:58:00;;;;;;;1.30;1.20;;;;;;;2.43;73.57;98403.97;5049208;28;20782;-79
2020/12/27 08:00:28;;;;;;;4.03;0.80;;;;;;;2.48;73.21;98395.75;5049441;28;20448;-77
2020/12/27 08:02:54;;;;;;;1.90;0.80;;;;;;;2.55;73.29;98385.31;5050539;28;21006;-78
2020/12/27 08:05:20;;;;;;;1.30;0.93;;;;;;;2.51;73.09;98380.88;5050743;28;20414;-78
2020/12/27 08:07:46;;;;;;;0.97;0.90;;;;;;;2.46;73.69;98365.63;5050570;28;20993;-78
2020/12/27 08:10:25;;;;;;;1.07;1.00;;;;;;;2.54;73.35;98345.22;5050575;28;20476;-78
2020/12/27 08:12:52;;;;;;;0.30;0.30;;;;;;;2.63;73.23;98371.13;5049366;28;20174;-79
2020/12/27 08:15:18;;;;;;;0.80;0.77;;;;;;;2.64;73.27;98359.22;5049296;28;20965;-78
2020/12/27 08:18:01;;;;;;;0.50;0.50;;;;;;;2.74;72.90;98373.50;5049249;28;20429;-78
2020/12/27 08:20:28;;;;;;;1.13;0.63;;;;;;;2.78;72.76;98361.81;5049347;28;20619;-72
2020/12/27 08:23:01;;;;;;;0.60;0.60;;;;;;;2.87;72.64;98359.13;5050359;28;20515;-72
2020/12/27 08:25:28;;;;;;;0.30;0.30;;;;;;;2.90;72.69;98350.44;5050742;28;20406;-78
2020/12/27 08:27:58;;;;;;;0.77;0.43;;;;;;;2.91;72.56;98333.16;5050748;28;20903;-78
2020/12/27 08:30:25;;;;;;;2.43;0.33;;;;;;;2.89;72.91;98338.03;5050435;28;20422;-78
2020/12/27 08:33:14;;;;;;;0.67;0.40;;;;;;;2.90;72.44;98310.00;5048919;28;20833;-79
2020/12/27 08:35:44;;;;;;;0.57;0.57;;;;;;;2.97;72.57;98318.41;5050028;28;20418;-78
2020/12/27 08:38:19;;;;;;;1.03;0.93;;;;;;;2.94;72.63;98341.41;5049598;28;20428;-78
2020/12/27 08:40:47;;;;;;;1.07;0.97;;;;;;;2.94;72.61;98306.34;5050108;28;20963;-78
2020/12/27 08:43:27;;;;;;;0.40;0.40;;;;;;;3.01;72.64;98302.38;5050245;28;20453;-77
2020/12/27 08:45:58;;;;;;;0.37;0.37;;;;;;;3.04;72.45;98290.97;5054200;28;20413;-79
2020/12/27 08:48:38;;;;;;;1.13;1.00;;;;;;;3.06;72.18;98296.88;5054095;28;20429;-78
2020/12/27 08:51:05;;;;;;;1.00;0.90;;;;;;;3.00;72.46;98293.50;5054176;28;20560;-78
2020/12/27 08:53:43;;;;;;;0.40;0.40;;;;;;;2.99;72.50;98278.44;5054167;28;20558;-79
2020/12/27 08:56:16;;;;;;;1.60;0.80;;;;;;;3.03;72.28;98275.88;5052228;28;20413;-79
2020/12/27 08:58:53;;;;;;;1.60;0.73;;;;;;;3.03;72.49;98284.78;5054246;28;20496;-79
2020/12/27 09:01:23;;;;;;;0.73;0.73;;;;;;;3.05;72.21;98269.09;5054067;28;20432;-77
2020/12/27 09:03:49;;;;;;;0.73;0.57;;;;;;;3.03;72.18;98259.69;5052569;28;20855;-78
2020/12/27 09:06:15;;;;;;;1.20;0.87;;;;;;;3.07;72.52;98261.47;5052275;28;20422;-78
2020/12/27 09:08:40;;;;;;;1.67;0.60;;;;;;;3.10;72.31;98249.25;5052360;28;20175;-78
2020/12/27 09:11:06;;;;;;;1.63;0.70;;;;;;;3.14;72.03;98250.19;5052481;28;20433;-76
2020/12/27 09:13:39;;;;;;;1.17;0.90;;;;;;;3.15;72.04;98243.69;5053458;28;20175;-80
2020/12/27 09:16:05;;;;;;;1.30;1.20;;;;;;;3.14;72.01;98229.41;5053449;28;20496;-79
2020/12/27 09:18:32;;;;;;;0.70;0.63;;;;;;;3.20;71.90;98238.16;5053557;28;20413;-79
2020/12/27 09:20:59;;;;;;;0.23;0.23;;;;;;;3.25;71.89;98236.09;5053932;28;20182;-78
2020/12/27 09:23:25;;;;;;;2.03;1.03;;;;;;;3.19;72.19;98221.19;5053259;28;20547;-78
2020/12/27 09:26:11;;;;;;;1.60;0.93;;;;;;;3.26;71.72;98221.47;5053156;28;20564;-79
2020/12/27 09:28:38;;;;;;;0.80;0.80;;;;;;;3.24;71.89;98204.03;5053309;28;20179;-79
2020/12/27 09:31:14;;;;;;;0.73;0.73;;;;;;;3.21;72.64;98199.28;5053788;28;20426;-79
2020/12/27 09:33:49;;;;;;;0.57;0.53;;;;;;;3.31;72.17;98188.13;5053255;28;20424;-77
2020/12/27 09:36:15;;;;;;;1.80;0.60;;;;;;;3.34;72.09;98187.53;5052816;28;20421;-78
2020/12/27 09:38:43;;;;;;;2.00;0.80;;;;;;;3.31;71.87;98195.44;5053402;28;20414;-79
2020/12/27 09:41:13;;;;;;;1.20;0.90;;;;;;;3.31;72.40;98190.84;5053286;28;20467;-78
2020/12/27 09:44:05;;;;;;;2.47;1.40;;;;;;;3.41;72.32;98181.63;5052210;28;20489;-80
2020/12/27 09:46:51;;;;;;;1.00;0.93;;;;;;;3.42;71.70;98167.81;5047957;28;20422;-77
2020/12/27 09:49:25;;;;;;;1.10;0.90;;;;;;;3.41;71.83;98174.31;5052996;28;20433;-79
2020/12/27 09:52:11;;;;;;;1.27;1.17;;;;;;;3.39;72.36;98149.56;5052260;28;20434;-79
2020/12/27 09:54:38;;;;;;;1.03;0.97;;;;;;;3.44;72.06;98162.88;5038663;28;20425;-78
2020/12/27 09:57:24;;;;;;;0.40;0.40;;;;;;;3.45;71.65;98148.28;5052732;28;20418;-79
2020/12/27 09:59:51;;;;;;;1.47;0.50;;;;;;;3.45;71.63;98140.19;5053057;28;20888;-77
2020/12/27 10:02:20;;;;;;;0.87;0.87;;;;;;;3.42;71.27;98156.22;5052882;28;20418;-79
2020/12/27 10:04:46;;;;;;;1.40;1.13;;;;;;;3.37;71.99;98134.81;5052675;28;20516;-79
2020/12/27 10:07:11;;;;;;;1.70;1.33;;;;;;;3.31;72.29;98134.16;5052608;28;20445;-77
2020/12/27 10:09:37;;;;;;;0.93;0.93;;;;;;;3.35;71.83;98121.66;5052697;28;20175;-77
2020/12/27 10:12:03;;;;;;;1.47;1.33;;;;;;;3.36;72.07;98122.44;5052660;28;20651;-78
2020/12/27 10:14:29;;;;;;;1.27;0.63;;;;;;;3.43;72.01;98107.31;5052928;28;20183;-79
2020/12/27 10:17:00;;;;;;;1.50;1.40;;;;;;;3.39;72.07;98125.28;5051234;28;20913;-78
2020/12/27 10:19:30;;;;;;;1.70;1.60;;;;;;;3.43;71.84;98109.22;5051359;28;20265;-79
2020/12/27 10:21:55;;;;;;;1.20;0.90;;;;;;;3.43;72.22;98096.53;5052519;28;20508;-78
2020/12/27 10:24:26;;;;;;;1.27;1.17;;;;;;;3.39;72.12;98095.59;5052777;28;20888;-79
2020/12/27 10:26:52;;;;;;;0.70;0.70;;;;;;;3.44;71.78;98098.09;5051081;28;20198;-78
2020/12/27 10:29:19;;;;;;;1.27;1.17;;;;;;;3.42;72.06;98086.84;5051873;28;20421;-80
2020/12/27 10:31:55;;;;;;;1.70;1.33;;;;;;;3.41;72.50;98087.16;5052059;28;20465;-78
2020/12/27 10:34:21;;;;;;;0.93;0.93;;;;;;;3.45;72.40;98088.91;5052934;28;20405;-81
2020/12/27 10:36:48;;;;;;;0.97;0.80;;;;;;;3.45;72.29;98070.00;5055705;28;20456;-79
2020/12/27 10:39:14;;;;;;;2.33;0.90;;;;;;;3.52;72.54;98091.13;5057055;28;20790;-76
2020/12/27 10:41:44;;;;;;;0.87;0.87;;;;;;;3.54;71.96;98075.38;5052759;28;20441;-79
2020/12/27 10:44:10;;;;;;;1.30;1.20;;;;;;;3.58;72.42;98060.13;5052112;28;20456;-78
2020/12/27 10:46:36;;;;;;;1.20;1.10;;;;;;;3.64;71.91;98047.25;5052001;28;20414;-77
2020/12/27 10:49:01;;;;;;;1.17;0.97;;;;;;;3.66;71.80;98040.41;5051728;28;20705;-79
2020/12/27 10:51:27;;;;;;;0.53;0.53;;;;;;;3.70;71.73;98029.72;5050638;28;20183;-77
2020/12/27 10:53:52;;;;;;;1.23;1.10;;;;;;;3.70;71.47;98037.84;5051819;28;20194;-77
2020/12/27 10:56:18;;;;;;;1.27;1.17;;;;;;;3.71;71.97;98055.63;5051891;28;20533;-76
2020/12/27 10:58:43;;;;;;;1.37;0.93;;;;;;;3.73;71.51;98023.69;5051805;28;20179;-78
2020/12/27 11:01:08;;;;;;;1.00;0.90;;;;;;;3.72;71.88;98035.59;5052141;28;20212;-79
2020/12/27 11:03:34;;;;;;;2.40;2.03;;;;;;;3.71;71.71;98025.91;5051712;28;20190;-79
2020/12/27 11:05:59;;;;;;;1.67;1.50;;;;;;;3.72;71.96;98016.69;5051178;28;20191;-79
2020/12/27 11:08:25;;;;;;;2.00;0.90;;;;;;;3.78;71.63;98015.41;5051216;28;20167;-79
2020/12/27 11:10:50;;;;;;;1.70;1.03;;;;;;;3.78;71.38;97991.09;5050223;28;20644;-79
2020/12/27 11:13:15;;;;;;;1.67;1.17;;;;;;;3.76;71.76;97977.13;5050890;28;20186;-78
2020/12/27 11:15:41;;;;;;;1.67;1.00;;;;;;;3.75;72.06;97976.31;5051318;28;20175;-79
2020/12/27 11:18:06;;;;;;;1.40;1.30;;;;;;;3.74;71.79;97952.34;5051425;28;20635;-79
2020/12/27 11:20:32;;;;;;;3.03;1.57;;;;;;;3.77;71.86;97959.81;5051242;28;20367;-77
2020/12/27 11:22:58;;;;;;;2.33;2.00;;;;;;;3.85;72.22;97950.84;5051462;28;20207;-80
2020/12/27 11:25:24;;;;;;;1.27;1.13;;;;;;;3.82;72.02;97938.81;5051215;28;20266;-79
2020/12/27 11:27:49;;;;;;;1.30;1.20;;;;;;;3.82;71.58;97956.91;5051208;28;20430;-79
2020/12/27 11:30:15;;;;;;;1.23;0.90;;;;;;;3.84;71.28;97928.47;5050139;28;20183;-79
2020/12/27 11:32:40;;;;;;;0.50;0.50;;;;;;;3.82;72.19;97911.00;5051669;28;20406;-79
2020/12/27 11:35:06;;;;;;;1.10;1.00;;;;;;;3.80;71.90;97897.84;5049653;28;20179;-78
2020/12/27 11:37:31;;;;;;;1.87;1.10;;;;;;;3.80;71.87;97870.84;5051102;28;20183;-77
2020/12/27 11:39:56;;;;;;;1.13;1.03;;;;;;;3.73;72.09;97857.06;5051008;28;20213;-78
2020/12/27 11:42:26;;;;;;;1.13;0.60;;;;;;;3.77;72.19;97863.41;5051116;28;20285;-79
2020/12/27 11:44:53;;;;;;;3.57;0.60;;;;;;;3.74;72.40;97852.44;5050863;28;20253;-79
2020/12/27 11:47:19;;;;;;;1.37;1.23;;;;;;;3.72;72.36;97857.38;5050799;28;20896;-78
2020/12/27 11:49:44;;;;;;;1.00;0.90;;;;;;;3.74;72.43;97815.44;5050960;28;20258;-78